Time,TemperatureF,DewpointF,PressureIn,WindDirection,WindDirectionDegrees,WindSpeedMPH,WindSpeedGustMPH,Humidity,HourlyPrecipIn,Conditions,Clouds,dailyrainin,SoftwareType,DateUTC
2013-03-15 00:14:00,51.1,47.0,30.18,North,-999,-999.0,-999.0,85,0.00,,,0.00,weatherlink.com 1.10,2013-03-15 07:14:00,
2013-03-15 00:29:00,51.2,47.0,30.18,North,-999,-999.0,-999.0,85,0.00,,,0.00,weatherlink.com 1.10,2013-03-15 07:29:00,
2013-03-15 00:44:00,51.3,47.0,30.18,North,-999,-999.0,-999.0,85,0.00,,,0.00,weatherlink.com 1.10,2013-03-15 07:44:00,
2013-03-15 00:59:00,51.2,47.0,30.18,North,-999,-999.0,-999.0,86,0.00,,,0.00,weatherlink.com 1.10,2013-03-15 07:59:00,
2013-03-15 01:14:00,51.0,47.0,30.18,North,-999,-999.0,-999.0,86,0.00,,,0.00,weatherlink.com 1.10,2013-03-15 08:14:00,
2013-03-15 01:29:00,50.8,47.0,30.17,North,-999,-999.0,-999.0,87,0.00,,,0.00,weatherlink.com 1.10,2013-03-15 08:29:00,
2013-03-15 01:44:00,50.5,47.0,30.18,North,-999,-999.0,-999.0,88,0.00,,,0.00,weatherlink.com 1.10,2013-03-15 08:44:00,
2013-03-15 01:59:00,50.6,47.0,30.18,North,-999,-999.0,-999.0,88,0.00,,,0.00,weatherlink.com 1.10,2013-03-15 08:59:00,
2013-03-15 02:14:00,50.6,47.0,30.18,North,-999,-999.0,-999.0,88,0.00,,,0.00,weatherlink.com 1.10,2013-03-15 09:14:00,
2013-03-15 02:29:00,50.4,47.0,30.19,North,-999,-999.0,-999.0,89,0.00,,,0.00,weatherlink.com 1.10,2013-03-15 09:29:00,
2013-03-15 02:45:00,50.5,47.0,30.19,North,-999,-999.0,-999.0,89,0.00,,,0.00,weatherlink.com 1.10,2013-03-15 09:45:00,
2013-03-15 03:00:00,50.6,48.0,30.19,North,-999,-999.0,-999.0,89,0.00,,,0.00,weatherlink.com 1.10,2013-03-15 10:00:00,
2013-03-15 03:15:00,50.6,48.0,30.19,North,-999,-999.0,-999.0,89,0.00,,,0.00,weatherlink.com 1.10,2013-03-15 10:15:00,
2013-03-15 03:30:00,50.7,48.0,30.20,North,-999,-999.0,-999.0,89,0.00,,,0.00,weatherlink.com 1.10,2013-03-15 10:30:00,
2013-03-15 03:45:00,50.7,48.0,30.19,North,-999,-999.0,-999.0,89,0.00,,,0.00,weatherlink.com 1.10,2013-03-15 10:45:00,
2013-03-15 04:00:00,50.5,48.0,30.18,North,-999,-999.0,-999.0,90,0.00,,,0.00,weatherlink.com 1.10,2013-03-15 11:00:00,
2013-03-15 04:15:00,50.6,48.0,30.18,North,-999,-999.0,-999.0,90,0.00,,,0.00,weatherlink.com 1.10,2013-03-15 11:15:00,
2013-03-15 04:30:00,50.6,48.0,30.18,North,-999,-999.0,-999.0,90,0.00,,,0.00,weatherlink.com 1.10,2013-03-15 11:30:00,
2013-03-15 04:45:00,50.3,48.0,30.18,North,-999,-999.0,-999.0,91,0.00,,,0.00,weatherlink.com 1.10,2013-03-15 11:45:00,
2013-03-15 05:00:00,50.2,48.0,30.18,North,-999,-999.0,-999.0,91,0.00,,,0.00,weatherlink.com 1.10,2013-03-15 12:00:00,
2013-03-15 05:15:00,49.8,47.0,30.19,North,-999,-999.0,-999.0,90,0.00,,,0.00,weatherlink.com 1.10,2013-03-15 12:15:00,
2013-03-15 05:30:00,48.9,47.0,30.19,North,-999,-999.0,-999.0,92,0.00,,,0.00,weatherlink.com 1.10,2013-03-15 12:30:00,
2013-03-15 05:45:00,49.4,47.0,30.19,North,-999,-999.0,-999.0,91,0.00,,,0.00,weatherlink.com 1.10,2013-03-15 12:45:00,
2013-03-15 06:00:00,50.1,48.0,30.20,North,-999,-999.0,-999.0,92,0.00,,,0.00,weatherlink.com 1.10,2013-03-15 13:00:00,
2013-03-15 06:16:00,50.2,48.0,30.20,North,-999,-999.0,-999.0,92,0.00,,,0.00,weatherlink.com 1.10,2013-03-15 13:16:00,
2013-03-15 06:31:00,50.0,48.0,30.20,North,-999,-999.0,-999.0,92,0.00,,,0.00,weatherlink.com 1.10,2013-03-15 13:31:00,
2013-03-15 06:46:00,50.1,48.0,30.20,North,-999,-999.0,-999.0,92,0.01,,,0.01,weatherlink.com 1.10,2013-03-15 13:46:00,
2013-03-15 07:01:00,49.2,47.0,30.20,North,-999,-999.0,-999.0,92,0.01,,,0.01,weatherlink.com 1.10,2013-03-15 14:01:00,
2013-03-15 07:16:00,48.8,47.0,30.20,North,-999,-999.0,-999.0,93,0.01,,,0.01,weatherlink.com 1.10,2013-03-15 14:16:00,
2013-03-15 07:31:00,49.3,47.0,30.20,North,-999,-999.0,-999.0,93,0.01,,,0.01,weatherlink.com 1.10,2013-03-15 14:31:00,
2013-03-15 07:46:00,48.7,47.0,30.20,North,-999,-999.0,-999.0,93,0.00,,,0.01,weatherlink.com 1.10,2013-03-15 14:46:00,
2013-03-15 08:01:00,48.8,47.0,30.21,North,-999,-999.0,-999.0,94,0.00,,,0.01,weatherlink.com 1.10,2013-03-15 15:01:00,
2013-03-15 08:16:00,49.5,48.0,30.21,North,-999,-999.0,-999.0,93,0.00,,,0.01,weatherlink.com 1.10,2013-03-15 15:16:00,
2013-03-15 08:31:00,49.6,47.0,30.21,North,-999,-999.0,-999.0,92,0.00,,,0.01,weatherlink.com 1.10,2013-03-15 15:31:00,
2013-03-15 08:46:00,49.5,48.0,30.21,South,183,3.0,5.0,93,0.00,,,0.01,weatherlink.com 1.10,2013-03-15 15:46:00,
2013-03-15 09:01:00,49.8,48.0,30.21,North,-999,-999.0,-999.0,92,0.00,,,0.01,weatherlink.com 1.10,2013-03-15 16:01:00,
2013-03-15 09:16:00,50.0,48.0,30.22,SSW,211,3.0,6.0,92,0.00,,,0.01,weatherlink.com 1.10,2013-03-15 16:16:00,
2013-03-15 09:32:00,50.3,48.0,30.22,WSW,255,6.0,6.0,92,0.00,,,0.01,weatherlink.com 1.10,2013-03-15 16:32:00,
2013-03-15 09:46:00,50.9,48.0,30.22,WSW,257,2.0,7.0,91,0.00,,,0.01,weatherlink.com 1.10,2013-03-15 16:46:00,
2013-03-15 10:01:00,51.5,49.0,30.22,WSW,240,2.0,8.0,90,0.00,,,0.01,weatherlink.com 1.10,2013-03-15 17:01:00,
2013-03-15 10:16:00,51.7,49.0,30.22,WNW,286,3.0,9.0,90,0.00,,,0.01,weatherlink.com 1.10,2013-03-15 17:16:00,
2013-03-15 10:31:00,52.5,49.0,30.22,West,274,3.0,12.0,89,0.00,,,0.01,weatherlink.com 1.10,2013-03-15 17:31:00,
2013-03-15 10:47:00,53.8,50.0,30.22,SW,234,4.0,10.0,88,0.00,,,0.01,weatherlink.com 1.10,2013-03-15 17:47:00,
2013-03-15 11:02:00,54.1,50.0,30.22,WSW,254,1.0,11.0,87,0.00,,,0.01,weatherlink.com 1.10,2013-03-15 18:02:00,
2013-03-15 11:17:00,54.7,50.0,30.22,WSW,254,2.0,11.0,85,0.00,,,0.01,weatherlink.com 1.10,2013-03-15 18:17:00,
2013-03-15 11:32:00,56.1,51.0,30.22,NW,309,1.0,10.0,84,0.00,,,0.01,weatherlink.com 1.10,2013-03-15 18:32:00,
2013-03-15 11:47:00,56.9,52.0,30.22,SSE,167,5.0,11.0,82,0.00,,,0.01,weatherlink.com 1.10,2013-03-15 18:47:00,
2013-03-15 12:02:00,58.1,52.0,30.22,West,262,5.0,8.0,79,0.00,,,0.01,weatherlink.com 1.10,2013-03-15 19:02:00,
2013-03-15 12:17:00,58.0,52.0,30.22,WNW,294,2.0,6.0,79,0.00,,,0.01,weatherlink.com 1.10,2013-03-15 19:17:00,
2013-03-15 12:47:00,58.9,52.0,30.22,West,259,4.0,7.0,77,0.00,,,0.01,weatherlink.com 1.10,2013-03-15 19:47:00,
2013-03-15 13:02:00,59.4,52.0,30.21,WSW,248,1.0,10.0,77,0.00,,,0.01,weatherlink.com 1.10,2013-03-15 20:02:00,
2013-03-15 13:17:00,61.2,52.0,30.21,SSW,211,4.0,7.0,72,0.00,,,0.01,weatherlink.com 1.10,2013-03-15 20:17:00,
2013-03-15 13:32:00,61.3,51.0,30.20,NW,309,2.0,6.0,69,0.00,,,0.01,weatherlink.com 1.10,2013-03-15 20:32:00,
2013-03-15 13:47:00,61.0,52.0,30.20,West,277,5.0,10.0,71,0.00,,,0.01,weatherlink.com 1.10,2013-03-15 20:47:00,
2013-03-15 14:02:00,61.8,51.0,30.20,West,275,4.0,9.0,68,0.00,,,0.01,weatherlink.com 1.10,2013-03-15 21:02:00,
2013-03-15 14:17:00,60.9,51.0,30.19,SSW,205,6.0,10.0,70,0.00,,,0.01,weatherlink.com 1.10,2013-03-15 21:17:00,
2013-03-15 14:32:00,61.1,51.0,30.18,South,188,7.0,8.0,69,0.00,,,0.01,weatherlink.com 1.10,2013-03-15 21:32:00,
2013-03-15 14:47:00,61.8,51.0,30.18,SSW,213,3.0,8.0,68,0.00,,,0.01,weatherlink.com 1.10,2013-03-15 21:47:00,
2013-03-15 15:02:00,61.4,51.0,30.17,SW,232,5.0,9.0,68,0.00,,,0.01,weatherlink.com 1.10,2013-03-15 22:02:00,
2013-03-15 15:17:00,61.6,50.0,30.17,NW,308,6.0,10.0,66,0.00,,,0.01,weatherlink.com 1.10,2013-03-15 22:17:00,
2013-03-15 15:32:00,60.7,50.0,30.16,West,263,3.0,7.0,67,0.00,,,0.01,weatherlink.com 1.10,2013-03-15 22:32:00,
2013-03-15 15:47:00,59.6,49.0,30.16,WSW,237,3.0,7.0,67,0.00,,,0.01,weatherlink.com 1.10,2013-03-15 22:47:00,
2013-03-15 16:02:00,59.6,50.0,30.17,West,267,3.0,8.0,70,0.00,,,0.01,weatherlink.com 1.10,2013-03-15 23:02:00,
2013-03-15 16:17:00,59.6,50.0,30.16,WNW,296,3.0,9.0,70,0.00,,,0.01,weatherlink.com 1.10,2013-03-15 23:17:00,
2013-03-15 16:32:00,60.1,49.0,30.16,WSW,257,2.0,8.0,67,0.00,,,0.01,weatherlink.com 1.10,2013-03-15 23:32:00,
2013-03-15 16:47:00,60.2,49.0,30.16,West,268,4.0,4.0,67,0.00,,,0.01,weatherlink.com 1.10,2013-03-15 23:47:00,
2013-03-15 17:02:00,60.4,48.0,30.16,WNW,293,1.0,7.0,65,0.00,,,0.01,weatherlink.com 1.10,2013-03-16 00:02:00,
2013-03-15 17:17:00,62.3,48.0,30.15,WSW,252,2.0,4.0,61,0.00,,,0.01,weatherlink.com 1.10,2013-03-16 00:17:00,
2013-03-15 17:32:00,61.2,48.0,30.15,West,281,1.0,6.0,63,0.00,,,0.01,weatherlink.com 1.10,2013-03-16 00:32:00,
2013-03-15 17:47:00,60.8,48.0,30.15,West,271,1.0,7.0,64,0.00,,,0.01,weatherlink.com 1.10,2013-03-16 00:47:00,
2013-03-15 18:02:00,60.1,48.0,30.15,West,261,3.0,7.0,65,0.00,,,0.01,weatherlink.com 1.10,2013-03-16 01:02:00,
2013-03-15 18:17:00,59.6,47.0,30.14,SW,217,3.0,6.0,64,0.00,,,0.01,weatherlink.com 1.10,2013-03-16 01:17:00,
2013-03-15 18:32:00,58.6,47.0,30.14,SW,221,3.0,8.0,66,0.00,,,0.01,weatherlink.com 1.10,2013-03-16 01:32:00,
2013-03-15 18:47:00,58.0,47.0,30.14,WSW,258,1.0,3.0,67,0.00,,,0.01,weatherlink.com 1.10,2013-03-16 01:47:00,
2013-03-15 19:02:00,56.6,46.0,30.14,West,267,2.0,3.0,69,0.00,,,0.01,weatherlink.com 1.10,2013-03-16 02:02:00,
2013-03-15 19:17:00,55.8,48.0,30.14,NNW,342,0.0,4.0,74,0.00,,,0.01,weatherlink.com 1.10,2013-03-16 02:17:00,
2013-03-15 19:32:00,56.0,47.0,30.14,North,-999,-999.0,-999.0,72,0.00,,,0.01,weatherlink.com 1.10,2013-03-16 02:32:00,
2013-03-15 19:48:00,54.8,48.0,30.14,North,-999,-999.0,-999.0,77,0.00,,,0.01,weatherlink.com 1.10,2013-03-16 02:48:00,
2013-03-15 20:03:00,54.4,48.0,30.14,North,-999,-999.0,-999.0,78,0.00,,,0.01,weatherlink.com 1.10,2013-03-16 03:03:00,
2013-03-15 20:18:00,54.9,48.0,30.14,North,-999,-999.0,-999.0,77,0.00,,,0.01,weatherlink.com 1.10,2013-03-16 03:18:00,
2013-03-15 20:33:00,54.7,47.0,30.14,North,-999,-999.0,-999.0,76,0.00,,,0.01,weatherlink.com 1.10,2013-03-16 03:33:00,
2013-03-15 20:48:00,53.8,47.0,30.14,North,-999,-999.0,-999.0,79,0.00,,,0.01,weatherlink.com 1.10,2013-03-16 03:48:00,
2013-03-15 21:03:00,52.0,46.0,30.14,North,-999,-999.0,-999.0,81,0.00,,,0.01,weatherlink.com 1.10,2013-03-16 04:03:00,
2013-03-15 21:18:00,50.9,46.0,30.14,North,-999,-999.0,-999.0,82,0.00,,,0.01,weatherlink.com 1.10,2013-03-16 04:18:00,
2013-03-15 21:33:00,50.1,46.0,30.14,North,-999,-999.0,-999.0,84,0.00,,,0.01,weatherlink.com 1.10,2013-03-16 04:33:00,
2013-03-15 21:48:00,50.2,45.0,30.14,North,-999,-999.0,-999.0,83,0.00,,,0.01,weatherlink.com 1.10,2013-03-16 04:48:00,
2013-03-15 22:03:00,49.0,45.0,30.14,North,-999,-999.0,-999.0,85,0.00,,,0.01,weatherlink.com 1.10,2013-03-16 05:03:00,
2013-03-15 22:18:00,49.7,45.0,30.14,North,-999,-999.0,-999.0,84,0.00,,,0.01,weatherlink.com 1.10,2013-03-16 05:18:00,
2013-03-15 22:33:00,50.0,46.0,30.14,North,-999,-999.0,-999.0,87,0.00,,,0.01,weatherlink.com 1.10,2013-03-16 05:33:00,
2013-03-15 22:48:00,50.2,46.0,30.14,North,-999,-999.0,-999.0,84,0.00,,,0.01,weatherlink.com 1.10,2013-03-16 05:48:00,
2013-03-15 23:03:00,49.3,45.0,30.14,North,-999,-999.0,-999.0,85,0.00,,,0.01,weatherlink.com 1.10,2013-03-16 06:03:00,
2013-03-15 23:19:00,48.1,45.0,30.14,North,-999,-999.0,-999.0,89,0.00,,,0.01,weatherlink.com 1.10,2013-03-16 06:19:00,
2013-03-15 23:34:00,48.3,45.0,30.13,North,-999,-999.0,-999.0,89,0.00,,,0.01,weatherlink.com 1.10,2013-03-16 06:34:00,
2013-03-15 23:49:00,47.7,45.0,30.13,North,-999,-999.0,-999.0,90,0.00,,,0.01,weatherlink.com 1.10,2013-03-16 06:49:00,